Flight Track Log - Related Links

Times and Time Zones

All times are in EDT time to prevent confusion due to time zone crossing. See the DAL1977 flight status page for this flight to view local times or setup timezone preferences in your user account.

Time Position Orientation Groundspeed Altitude Reporting Facility
EDT Latitude Longitude Course Direction KTS MPH feet Rate Location/Type
Thu 04:37:28 PM 33.6667 -84.5000 301° West 230 265 3,500  Level Atlanta TRACON
Thu 04:38:28 PM 33.7000 -84.5667 348° North 249 287 7,500 3,250 Climbing Atlanta TRACON
Thu 04:39:28 PM 33.7667 -84.5833 360° North 296 341 10,000 2,737 Climbing Atlanta TRACON
Thu 04:40:22 PM 33.8500 -84.5833 355° North 303 349 12,700 2,571 Climbing Atlanta TRACON
Thu 04:40:52 PM 33.8850 -84.5869 360° North 303 349 13,600 867 Climbing Atlanta Center
Thu 04:41:52 PM 33.9933 -84.5875 359° North 348 400 14,000 200 Climbing Atlanta Center
Thu 04:42:52 PM 34.0978 -84.5906 360° North 403 464 14,000 850 Level Atlanta Center
Thu 04:43:52 PM 34.2083 -84.5914 358° North 398 458 15,700 2,250 Climbing Atlanta Center
Thu 04:44:52 PM 34.3211 -84.5972 356° North 403 464 18,500 2,450 Climbing Atlanta Center
Thu 04:45:52 PM 34.4378 -84.6081 357° North 414 476 20,600 2,100 Climbing Atlanta Center
Thu 04:46:52 PM 34.5525 -84.6164 354° North 414 476 22,700 1,200 Climbing Atlanta Center
Thu 04:47:52 PM 34.6611 -84.6297 357° North 424 488 23,000 1,300 Climbing Atlanta Center
Thu 04:48:52 PM 34.7800 -84.6381 355° North 424 488 25,300 2,400 Climbing Atlanta Center
Thu 04:49:52 PM 34.8947 -84.6492 355° North 418 481 27,800 1,350 Climbing Atlanta Center
Thu 04:50:52 PM 35.0011 -84.6600 349° North 403 464 28,000 100 Climbing Atlanta Center
Thu 04:51:52 PM 35.1094 -84.6861 340° North 392 451 28,000  Level Atlanta Center
Thu 04:52:52 PM 35.2197 -84.7353 341° North 392 451 28,000  Level Atlanta Center
Thu 04:53:52 PM 35.3281 -84.7822 342° North 405 466 28,000  Level Atlanta Center
Thu 04:54:52 PM 35.4361 -84.8264 350° North 405 466 28,000  Level Atlanta Center
Thu 04:55:52 PM 35.5508 -84.8506 North 405 466 28,000 600 Level Atlanta Center
Thu 04:56:52 PM 35.6678 -84.8414 North 412 474 29,200 1,450 Climbing Atlanta Center
Thu 04:57:52 PM 35.7803 -84.8297 North 407 468 30,900 1,400 Climbing Atlanta Center
Thu 04:58:52 PM 35.9056 -84.8231 North 412 474 32,000 377 Climbing Atlanta Center
Thu 05:00:47 PM 36.1089 -84.8061 North 405 466 32,000  Level Indianapolis Center
Thu 05:01:47 PM 36.2194 -84.7978 North 400 460 32,000  Level Indianapolis Center
Thu 05:02:47 PM 36.3322 -84.7917 North 400 460 32,000  Level Indianapolis Center
Thu 05:03:47 PM 36.4428 -84.7781 14° North 400 460 32,000  Level Indianapolis Center
Thu 05:04:47 PM 36.5539 -84.7436 13° North 405 466 32,000  Level Indianapolis Center
Thu 05:05:47 PM 36.6667 -84.7117 18° North 410 472 32,000  Level Indianapolis Center
Thu 05:06:47 PM 36.7756 -84.6667 23° Northeast 416 479 32,000  Level Indianapolis Center
Thu 05:07:47 PM 36.8867 -84.6086 16° North 423 487 32,000  Level Indianapolis Center
Thu 05:08:47 PM 36.9978 -84.5686 359° North 428 493 32,000  Level Indianapolis Center
Thu 05:09:47 PM 37.1250 -84.5728 11° North 412 474 32,000  Level Indianapolis Center
Thu 05:10:47 PM 37.2461 -84.5433 15° North 421 484 32,000  Level Indianapolis Center
Thu 05:11:47 PM 37.3675 -84.5031 13° North 434 499 32,000  Level Indianapolis Center
Thu 05:12:47 PM 37.4908 -84.4678 14° North 448 516 32,000  Level Indianapolis Center
Thu 05:13:47 PM 37.6100 -84.4300 12° North 448 516 32,000  Level Indianapolis Center
Thu 05:14:47 PM 37.7292 -84.3972 346° North 443 510 32,000  Level Indianapolis Center
Thu 05:15:47 PM 37.8436 -84.4328 339° North 418 481 32,000  Level Indianapolis Center
Thu 05:16:47 PM 37.9517 -84.4842 341° North 412 474 32,000  Level Indianapolis Center
Thu 05:17:47 PM 38.0472 -84.5250 340° North 409 471 32,000  Level Indianapolis Center
Thu 05:18:47 PM 38.1469 -84.5711 339° North 396 456 32,000  Level Indianapolis Center
Thu 05:19:47 PM 38.2489 -84.6200 341° North 391 450 32,000  Level Indianapolis Center
Thu 05:20:47 PM 38.3506 -84.6639 341° North 391 450 32,000  Level Indianapolis Center
Thu 05:21:47 PM 38.4522 -84.7081 341° North 386 444 32,000  Level Indianapolis Center
Thu 05:22:47 PM 38.5519 -84.7519 341° North 386 444 32,000  Level Indianapolis Center
Thu 05:23:47 PM 38.6619 -84.8017 339° North 386 444 32,000  Level Indianapolis Center
Thu 05:24:47 PM 38.7533 -84.8458 340° North 386 444 32,000 -650 Level Indianapolis Center
Thu 05:25:47 PM 38.8528 -84.8931 339° North 381 438 30,700 -1,150 Descending Indianapolis Center
Thu 05:26:47 PM 38.9503 -84.9403 341° North 381 438 29,700 -1,050 Descending Indianapolis Center
Thu 05:27:47 PM 39.0519 -84.9850 339° North 381 438 28,600 -850 Descending Indianapolis Center
Thu 05:28:47 PM 39.1475 -85.0322 341° North 369 425 28,000 -300 Descending Indianapolis Center
Thu 05:29:47 PM 39.2469 -85.0772 339° North 369 425 28,000  Level Indianapolis Center
Thu 05:30:47 PM 39.3400 -85.1222 340° North 369 425 28,000  Level Indianapolis Center
Thu 05:31:47 PM 39.4375 -85.1675 339° North 369 425 28,000  Level Indianapolis Center
Thu 05:32:47 PM 39.5453 -85.2211 340° North 369 425 28,000  Level Indianapolis Center
Thu 05:33:47 PM 39.6425 -85.2664 340° North 374 430 28,000  Level Indianapolis Center
Thu 05:34:47 PM 39.7378 -85.3119 340° North 366 421 28,000  Level Indianapolis Center
Thu 05:35:47 PM 39.8372 -85.3603 340° North 366 421 28,000  Level Indianapolis Center
Thu 05:36:47 PM 39.9344 -85.4061 339° North 366 421 28,000  Level Indianapolis Center
Thu 05:38:39 PM 40.1128 -85.4947 339° North 368 423 28,000 -140 Level Chicago Center
Thu 05:39:39 PM 40.2083 -85.5436 341° North 368 423 27,600 -900 Descending Chicago Center
Thu 05:40:39 PM 40.3036 -85.5872 340° North 368 423 26,200 -1,250 Descending Chicago Center
Thu 05:41:39 PM 40.4053 -85.6361 341° North 375 432 25,100 -1,050 Descending Chicago Center
Thu 05:42:39 PM 40.5111 -85.6847 343° North 386 444 24,100 -550 Descending Chicago Center
Thu 05:43:39 PM 40.6169 -85.7281 331° Northwest 391 450 24,000 -550 Descending Chicago Center
Thu 05:44:39 PM 40.7067 -85.7944 303° West 381 438 23,000 -500 Descending Chicago Center
Thu 05:45:39 PM 40.7667 -85.9147 302° West 380 437 23,000  Level Chicago Center
Thu 05:46:39 PM 40.8222 -86.0325 301° West 385 443 23,000  Level Chicago Center
Thu 05:47:39 PM 40.8756 -86.1506 303° West 379 436 23,000 -300 Level Chicago Center
Thu 05:48:39 PM 40.9331 -86.2689 301° West 379 436 22,400 -700 Descending Chicago Center
Thu 05:49:39 PM 40.9817 -86.3764 303° West 379 436 21,600 -800 Descending Chicago Center
Thu 05:50:39 PM 41.0433 -86.5003 301° West 369 425 20,800 -750 Descending Chicago Center
Thu 05:51:39 PM 41.0961 -86.6167 303° West 369 425 20,100 -700 Descending Chicago Center
Thu 05:52:39 PM 41.1511 -86.7300 302° West 369 425 19,400 1,950 Descending Chicago Center
Thu 05:53:39 PM 41.2058 -86.8467 300° West 369 425 24,000 -1,900 Climbing Chicago Center
Thu 05:54:39 PM 41.2517 -86.9525 300° West 363 418 15,600 -5,400 Descending Chicago Center
Thu 05:55:39 PM 41.2978 -87.0586 304° West 345 397 13,200 -2,250 Descending Chicago Center
Thu 05:56:39 PM 41.3475 -87.1564 310° West 332 382 11,100 -1,100 Descending Chicago Center
Thu 05:57:39 PM 41.4014 -87.2406 318° Northwest 319 367 11,000 -50 Descending Chicago Center
Thu 05:58:39 PM 41.4653 -87.3161 320° Northwest 308 354 11,000  Level Chicago Center
Thu 05:59:39 PM 41.5247 -87.3836 320° Northwest 308 354 11,000  Level Chicago Center
Thu 06:00:39 PM 41.5886 -87.4564 321° Northwest 308 354 11,000  Level Chicago Center
Thu 06:01:39 PM 41.6544 -87.5267 319° Northwest 308 354 11,000  Level Chicago Center
Thu 06:02:39 PM 41.7203 -87.6028 320° Northwest 308 354 11,000  Level Chicago Center
Thu 06:03:39 PM 41.7836 -87.6736 317° Northwest 308 354 11,000 -50 Level Chicago Center
Thu 06:04:39 PM 41.8475 -87.7528 290° West 308 354 10,900 -604 Descending Chicago Center
Thu 06:05:58 PM 41.8833 -87.8833 270° West 270 311 9,600 -1,122 Descending Chicago TRACON
Thu 06:06:58 PM 41.8833 -87.9667 270° West 238 274 8,300 -1,300 Descending Chicago TRACON
Thu 06:07:58 PM 41.8833 -88.0500 270° West 227 261 7,000 -1,250 Descending Chicago TRACON
Thu 06:08:58 PM 41.8833 -88.1333 270° West 208 239 5,800 -1,000 Descending Chicago TRACON
Thu 06:09:58 PM 41.8833 -88.2167 294° West 197 227 5,000 -450 Descending Chicago TRACON
Thu 06:10:58 PM 41.9000 -88.2667 14° North 188 216 4,900 -500 Descending Chicago TRACON
Thu 06:11:58 PM 41.9500 -88.2500 71° East 181 208 4,000 -446 Descending Chicago TRACON
Thu 06:12:59 PM 41.9667 -88.1833 90° East 177 204 4,000 -149 Level Chicago TRACON
Thu 06:13:59 PM 41.9667 -88.1167 90° East 183 211 3,700 -579 Descending Chicago TRACON
Thu 06:14:53 PM 41.9667 -88.0667 90° East 181 208 2,900 -1,000 Descending Chicago TRACON
Thu 06:15:53 PM 41.9667 -88.0000 90° East 161 185 1,800 -1,000 Descending Chicago TRACON
Thu 06:16:59 PM 41.9667 -87.9333 90° East 149 171 800 -909 Descending Chicago TRACON

Login

Don't have an account? Register now (free) for customized features, flight alerts, and more!